createdAt,value
2017-07-24T00:00:17.291Z,17.20
2017-07-24T00:02:46.337Z,17.20
2017-07-24T00:05:14.651Z,17.20
2017-07-24T00:07:42.955Z,17.20
2017-07-24T00:10:11.236Z,17.20
2017-07-24T00:12:39.644Z,17.30
2017-07-24T00:15:07.927Z,17.40
2017-07-24T00:17:36.253Z,17.40
2017-07-24T00:20:05.341Z,17.20
2017-07-24T00:22:33.619Z,17.20
2017-07-24T00:25:01.939Z,17.20
2017-07-24T00:27:30.236Z,17.20
2017-07-24T00:29:58.556Z,17.20
2017-07-24T00:32:26.847Z,17.20
2017-07-24T00:34:55.163Z,17.20
2017-07-24T00:37:23.545Z,17.10
2017-07-24T00:39:51.845Z,17.10
2017-07-24T00:42:20.227Z,17.00
2017-07-24T00:44:48.506Z,17.00
2017-07-24T00:47:17.016Z,17.00
2017-07-24T00:49:45.407Z,16.90
2017-07-24T00:52:13.990Z,16.80
2017-07-24T00:54:42.297Z,16.80
2017-07-24T00:57:10.664Z,16.70
2017-07-24T00:59:38.942Z,16.80
2017-07-24T01:02:07.254Z,16.70
2017-07-24T01:04:35.563Z,16.80
2017-07-24T01:07:03.861Z,16.90
2017-07-24T01:09:33.243Z,16.80
2017-07-24T01:12:01.553Z,16.80
2017-07-24T01:14:29.935Z,16.80
2017-07-24T01:16:58.244Z,16.70
2017-07-24T01:19:27.341Z,16.70
2017-07-24T01:21:55.637Z,16.70
2017-07-24T01:24:24.011Z,16.60
2017-07-24T01:26:52.324Z,16.50
2017-07-24T01:29:21.377Z,16.50
2017-07-24T01:31:49.696Z,16.40
2017-07-24T01:34:18.002Z,16.40
2017-07-24T01:36:47.096Z,16.30
2017-07-24T01:39:15.385Z,16.30
2017-07-24T01:41:43.679Z,16.30
2017-07-24T01:44:12.073Z,16.30
2017-07-24T01:46:40.350Z,16.30
2017-07-24T01:49:08.740Z,16.30
2017-07-24T01:51:37.015Z,16.30
2017-07-24T01:54:05.336Z,16.30
2017-07-24T01:56:33.623Z,16.20
2017-07-24T01:59:02.003Z,16.20
2017-07-24T02:01:30.288Z,16.10
2017-07-24T02:03:58.621Z,16.10
2017-07-24T02:06:26.899Z,16.00
2017-07-24T02:08:56.003Z,16.00
2017-07-24T02:11:25.082Z,15.90
2017-07-24T02:13:53.360Z,15.90
2017-07-24T02:16:21.767Z,15.90
2017-07-24T02:18:50.088Z,16.00
2017-07-24T02:21:19.173Z,16.10
2017-07-24T02:23:47.560Z,16.10
2017-07-24T02:26:17.485Z,16.20
2017-07-24T02:28:45.808Z,16.20
2017-07-24T02:31:14.107Z,16.20
2017-07-24T02:33:42.460Z,16.20
2017-07-24T02:36:12.275Z,16.20
2017-07-24T02:38:40.564Z,16.20
2017-07-24T02:41:08.965Z,16.20
2017-07-24T02:43:37.356Z,16.20
2017-07-24T02:46:05.637Z,16.30
2017-07-24T02:48:34.018Z,16.40
2017-07-24T02:51:02.416Z,16.20
2017-07-24T02:53:30.708Z,16.20
2017-07-24T02:55:59.016Z,16.20
2017-07-24T02:58:28.100Z,16.40
2017-07-24T03:00:56.410Z,16.40
2017-07-24T03:03:25.487Z,16.40
2017-07-24T03:05:53.792Z,16.40
2017-07-24T03:08:22.112Z,16.50
2017-07-24T03:10:51.158Z,16.50
2017-07-24T03:13:19.478Z,16.50
2017-07-24T03:15:47.764Z,16.50
2017-07-24T03:18:16.056Z,16.50
2017-07-24T03:20:44.367Z,16.50
2017-07-24T03:23:13.461Z,16.50
2017-07-24T03:25:41.782Z,16.40
2017-07-24T03:28:10.947Z,16.40
2017-07-24T03:30:39.273Z,16.50
2017-07-24T03:33:08.442Z,16.50
2017-07-24T03:35:36.849Z,16.50
2017-07-24T03:38:05.166Z,16.60
2017-07-24T03:40:33.529Z,16.50
2017-07-24T03:43:01.907Z,16.50
2017-07-24T03:45:30.187Z,16.50
2017-07-24T03:47:58.516Z,16.50
2017-07-24T03:50:27.695Z,16.60
2017-07-24T03:52:55.974Z,16.60
2017-07-24T03:55:24.309Z,16.70
2017-07-24T03:57:53.378Z,16.60
2017-07-24T04:00:21.680Z,16.60
2017-07-24T04:02:50.002Z,16.60
2017-07-24T04:05:18.289Z,16.70
2017-07-24T04:07:46.648Z,16.70
2017-07-24T04:10:14.967Z,16.70
2017-07-24T04:12:43.675Z,16.70
2017-07-24T04:15:11.963Z,16.80
2017-07-24T04:17:40.274Z,16.90
2017-07-24T04:20:08.594Z,17.00
2017-07-24T04:22:36.970Z,17.10
2017-07-24T04:25:05.283Z,17.10
2017-07-24T04:27:33.604Z,17.00
2017-07-24T04:30:02.781Z,16.90
2017-07-24T04:32:31.711Z,16.90
2017-07-24T04:35:01.188Z,16.90
2017-07-24T04:37:29.481Z,16.90
2017-07-24T04:39:57.804Z,16.90
2017-07-24T04:42:26.078Z,17.10
2017-07-24T04:44:54.368Z,17.10
2017-07-24T04:47:22.689Z,17.10
2017-07-24T04:49:50.963Z,17.10
2017-07-24T04:52:19.297Z,17.20
2017-07-24T04:54:47.566Z,17.20
2017-07-24T04:57:15.903Z,17.20
2017-07-24T04:59:44.223Z,17.20
2017-07-24T05:02:13.272Z,17.10
2017-07-24T05:04:41.671Z,17.10
2017-07-24T05:07:09.984Z,17.00
2017-07-24T05:09:38.271Z,17.00
2017-07-24T05:12:06.676Z,17.10
2017-07-24T05:14:35.000Z,17.10
2017-07-24T05:17:03.433Z,17.10
2017-07-24T05:19:31.843Z,17.10
2017-07-24T05:22:00.219Z,17.20
2017-07-24T05:24:28.519Z,17.30
2017-07-24T05:26:56.902Z,17.30
2017-07-24T05:29:25.229Z,17.40
2017-07-24T05:31:54.701Z,17.90
2017-07-24T05:34:23.179Z,17.90
2017-07-24T05:36:51.472Z,18.20
2017-07-24T05:39:19.794Z,18.40
2017-07-24T05:41:48.083Z,18.30
2017-07-24T05:44:16.415Z,18.50
2017-07-24T05:46:44.727Z,18.60
2017-07-24T05:49:13.019Z,18.80
2017-07-24T05:51:41.348Z,19.00
2017-07-24T05:54:09.728Z,19.00
2017-07-24T05:56:38.119Z,19.00
2017-07-24T05:59:06.512Z,19.10
2017-07-24T06:01:34.807Z,19.30
2017-07-24T06:04:03.135Z,19.50
2017-07-24T06:06:31.437Z,19.60
2017-07-24T06:08:59.773Z,19.50
2017-07-24T06:11:28.160Z,19.30
2017-07-24T06:13:56.656Z,19.30
2017-07-24T06:16:24.930Z,19.20
2017-07-24T06:18:53.227Z,19.10
2017-07-24T06:21:21.556Z,19.30
2017-07-24T06:23:49.831Z,19.50
2017-07-24T06:26:19.029Z,19.50
2017-07-24T06:28:47.317Z,19.50
2017-07-24T06:31:15.691Z,19.50
2017-07-24T06:33:44.096Z,19.50
2017-07-24T06:36:12.396Z,19.60
2017-07-24T06:38:41.470Z,19.90
2017-07-24T06:41:09.771Z,19.90
2017-07-24T06:43:38.159Z,20.10
2017-07-24T06:46:06.461Z,20.20
2017-07-24T06:48:34.783Z,20.30
2017-07-24T06:51:03.067Z,20.30
2017-07-24T06:53:31.395Z,20.40
2017-07-24T06:55:59.719Z,20.50
2017-07-24T06:58:28.036Z,20.40
2017-07-24T07:00:56.346Z,20.30
2017-07-24T07:03:24.658Z,20.40
2017-07-24T07:05:53.066Z,20.40
2017-07-24T07:08:21.356Z,20.50
2017-07-24T07:10:49.752Z,20.50
2017-07-24T07:13:18.134Z,20.60
2017-07-24T07:15:46.454Z,20.80
2017-07-24T07:18:15.643Z,20.60
2017-07-24T07:20:43.933Z,20.60
2017-07-24T07:23:12.314Z,20.90
2017-07-24T07:25:40.595Z,21.20
2017-07-24T07:28:08.910Z,21.40
2017-07-24T07:30:37.221Z,21.50
2017-07-24T07:33:06.277Z,21.40
2017-07-24T07:35:34.684Z,21.40
2017-07-24T07:38:02.972Z,21.20
2017-07-24T07:40:31.340Z,21.20
2017-07-24T07:42:59.758Z,21.10
2017-07-24T07:45:28.156Z,21.40
2017-07-24T07:47:56.535Z,21.40
2017-07-24T07:50:24.815Z,21.30
2017-07-24T07:52:53.104Z,21.40
2017-07-24T07:55:21.437Z,21.60
2017-07-24T07:57:50.492Z,22.00
2017-07-24T08:00:18.911Z,22.00
2017-07-24T08:02:47.304Z,22.10
2017-07-24T08:05:15.695Z,22.10
2017-07-24T08:07:43.984Z,22.30
2017-07-24T08:10:12.294Z,22.60
2017-07-24T08:12:41.371Z,23.20
2017-07-24T08:15:10.394Z,23.20
2017-07-24T08:17:38.771Z,23.40
2017-07-24T08:20:07.051Z,23.50
2017-07-24T08:22:35.371Z,23.30
2017-07-24T08:25:04.455Z,22.90
2017-07-24T08:27:32.731Z,22.90
2017-07-24T08:30:01.138Z,23.00
2017-07-24T08:32:29.424Z,23.10
2017-07-24T08:34:57.745Z,23.30
2017-07-24T08:37:26.927Z,23.30
2017-07-24T08:39:55.210Z,23.30
2017-07-24T08:42:23.615Z,23.50
2017-07-24T08:44:52.008Z,23.70
2017-07-24T08:47:20.361Z,23.70
2017-07-24T08:49:48.688Z,23.40
2017-07-24T08:52:17.076Z,23.30
2017-07-24T08:54:45.454Z,23.50
2017-07-24T08:57:13.730Z,23.50
2017-07-24T08:59:42.139Z,23.70
2017-07-24T09:02:10.535Z,23.90
2017-07-24T09:04:38.815Z,23.90
2017-07-24T09:07:07.215Z,24.00
2017-07-24T09:09:35.598Z,24.10
2017-07-24T09:12:04.000Z,24.20
2017-07-24T09:14:32.382Z,24.40
2017-07-24T09:17:00.675Z,24.40
2017-07-24T09:19:28.973Z,24.60
2017-07-24T09:21:57.278Z,24.80
2017-07-24T09:24:26.336Z,24.40
2017-07-24T09:26:54.658Z,24.40
2017-07-24T09:29:22.937Z,24.50
2017-07-24T09:31:51.217Z,24.60
2017-07-24T09:34:19.606Z,24.60
2017-07-24T09:36:48.120Z,24.50
2017-07-24T09:39:16.399Z,24.70
2017-07-24T09:41:44.690Z,24.70
2017-07-24T09:44:13.079Z,24.60
2017-07-24T09:46:41.363Z,24.50
2017-07-24T09:49:09.665Z,24.70
2017-07-24T09:51:37.937Z,24.80
2017-07-24T09:54:06.335Z,24.90
2017-07-24T09:56:34.735Z,25.00
2017-07-24T09:59:03.118Z,25.20
2017-07-24T10:01:31.524Z,25.10
2017-07-24T10:03:59.827Z,25.20
2017-07-24T10:06:28.906Z,25.10
2017-07-24T10:08:57.220Z,25.10
2017-07-24T10:11:25.582Z,25.20
2017-07-24T10:13:53.882Z,25.00
2017-07-24T10:16:22.200Z,25.00
2017-07-24T10:18:51.275Z,25.20
2017-07-24T10:21:20.451Z,25.40
2017-07-24T10:23:48.766Z,25.40
2017-07-24T10:26:17.046Z,25.30
2017-07-24T10:28:45.325Z,25.40
2017-07-24T10:31:14.475Z,25.50
2017-07-24T10:33:42.851Z,25.60
2017-07-24T10:36:11.131Z,25.50
2017-07-24T10:38:39.540Z,25.60
2017-07-24T10:41:07.924Z,25.70
2017-07-24T10:43:36.310Z,25.80
2017-07-24T10:46:04.596Z,25.90
2017-07-24T10:48:32.906Z,25.90
2017-07-24T10:51:01.282Z,25.80
2017-07-24T10:53:29.684Z,25.80
2017-07-24T10:55:58.058Z,25.80
2017-07-24T10:58:26.462Z,25.90
2017-07-24T11:00:54.738Z,26.10
2017-07-24T11:03:23.042Z,26.00
2017-07-24T11:05:51.318Z,25.70
2017-07-24T11:08:19.643Z,25.60
2017-07-24T11:10:48.828Z,25.80
2017-07-24T11:13:17.129Z,25.80
2017-07-24T11:15:45.503Z,25.90
2017-07-24T11:18:13.815Z,25.90
2017-07-24T11:20:42.192Z,25.90
2017-07-24T11:23:10.520Z,25.90
2017-07-24T11:25:38.815Z,25.90
2017-07-24T11:28:07.150Z,25.90
2017-07-24T11:30:35.454Z,25.90
2017-07-24T11:33:03.830Z,26.00
2017-07-24T11:35:32.168Z,26.10
2017-07-24T11:38:00.443Z,25.80
2017-07-24T11:40:29.496Z,25.20
2017-07-24T11:42:57.825Z,25.20
2017-07-24T11:45:26.098Z,25.40
2017-07-24T11:47:54.384Z,25.40
2017-07-24T11:50:22.704Z,25.50
2017-07-24T11:52:51.755Z,26.20
2017-07-24T11:55:20.036Z,26.20
2017-07-24T11:57:48.361Z,26.10
2017-07-24T12:00:16.750Z,26.30
2017-07-24T12:02:45.022Z,26.20
2017-07-24T12:05:13.330Z,26.10
2017-07-24T12:07:41.647Z,25.80
2017-07-24T12:10:10.715Z,26.20
2017-07-24T12:12:39.024Z,26.20
2017-07-24T12:15:07.342Z,26.40
2017-07-24T12:17:36.524Z,26.80
2017-07-24T12:20:04.816Z,26.80
2017-07-24T12:22:33.116Z,26.80
2017-07-24T12:25:02.172Z,26.40
2017-07-24T12:27:30.490Z,26.40
2017-07-24T12:29:58.788Z,26.30
2017-07-24T12:32:27.175Z,26.10
2017-07-24T12:34:55.486Z,26.00
2017-07-24T12:37:24.584Z,25.80
2017-07-24T12:39:52.871Z,25.80
2017-07-24T12:42:21.250Z,25.60
2017-07-24T12:44:49.635Z,25.60
2017-07-24T12:47:17.946Z,25.40
2017-07-24T12:49:46.222Z,25.50
2017-07-24T12:52:14.505Z,25.50
2017-07-24T12:54:42.904Z,25.50
2017-07-24T12:57:11.290Z,25.60
2017-07-24T12:59:39.608Z,25.90
2017-07-24T13:02:08.660Z,25.90
2017-07-24T13:04:36.969Z,25.90
2017-07-24T13:07:05.253Z,25.90
2017-07-24T13:09:33.654Z,25.50
2017-07-24T13:12:01.965Z,25.50
2017-07-24T13:14:30.343Z,25.30
2017-07-24T13:16:58.654Z,25.60
2017-07-24T13:19:27.707Z,26.10
2017-07-24T13:21:56.032Z,26.00
2017-07-24T13:24:24.405Z,26.00
2017-07-24T13:26:52.686Z,26.10
2017-07-24T13:29:21.055Z,26.10
2017-07-24T13:31:49.378Z,26.20
2017-07-24T13:34:17.663Z,26.30
2017-07-24T13:36:45.970Z,26.30
2017-07-24T13:39:14.255Z,26.10
2017-07-24T13:41:42.576Z,25.80
2017-07-24T13:44:11.755Z,25.60
2017-07-24T13:46:40.139Z,25.60
2017-07-24T13:49:08.455Z,25.60
2017-07-24T13:51:37.544Z,25.70
2017-07-24T13:54:05.847Z,25.70
2017-07-24T13:56:34.244Z,25.60
2017-07-24T13:59:02.606Z,25.50
2017-07-24T14:01:30.999Z,25.40
2017-07-24T14:03:59.283Z,25.30
2017-07-24T14:06:27.600Z,25.60
2017-07-24T14:08:55.976Z,25.60
2017-07-24T14:11:24.371Z,25.80
2017-07-24T14:13:52.751Z,26.00
2017-07-24T14:16:21.032Z,26.10
2017-07-24T14:18:49.338Z,26.20
2017-07-24T14:21:17.622Z,26.30
2017-07-24T14:23:45.934Z,26.30
2017-07-24T14:26:15.114Z,26.10
2017-07-24T14:28:43.400Z,26.10
2017-07-24T14:31:11.719Z,26.10
2017-07-24T14:33:40.803Z,25.90
2017-07-24T14:36:09.106Z,25.80
2017-07-24T14:38:37.390Z,24.80
2017-07-24T14:41:05.698Z,24.60
2017-07-24T14:43:34.752Z,24.00
2017-07-24T14:46:03.056Z,24.00
2017-07-24T14:48:31.452Z,23.90
2017-07-24T14:50:59.737Z,23.50
2017-07-24T14:53:28.042Z,23.30
2017-07-24T14:55:56.327Z,23.40
2017-07-24T14:58:24.659Z,23.20
2017-07-24T15:00:53.006Z,23.10
2017-07-24T15:03:21.278Z,22.90
2017-07-24T15:05:49.586Z,22.90
2017-07-24T15:08:17.866Z,23.10
2017-07-24T15:10:46.183Z,23.20
2017-07-24T15:13:15.235Z,23.50
2017-07-24T15:15:43.552Z,23.50
2017-07-24T15:18:11.832Z,23.60
2017-07-24T15:20:40.244Z,23.80
2017-07-24T15:23:08.519Z,23.90
2017-07-24T15:25:36.826Z,23.60
2017-07-24T15:28:05.103Z,23.30
2017-07-24T15:30:33.504Z,23.40
2017-07-24T15:33:01.886Z,23.40
2017-07-24T15:35:30.278Z,23.50
2017-07-24T15:37:58.659Z,23.40
2017-07-24T15:40:26.944Z,23.10
2017-07-24T15:42:55.361Z,23.10
2017-07-24T15:45:23.647Z,22.90
2017-07-24T15:47:51.932Z,22.80
2017-07-24T15:50:20.327Z,22.90
2017-07-24T15:52:48.616Z,22.80
2017-07-24T15:55:17.008Z,22.70
2017-07-24T15:57:45.387Z,22.50
2017-07-24T16:00:13.793Z,22.60
2017-07-24T16:02:42.062Z,22.50
2017-07-24T16:05:10.379Z,22.50
2017-07-24T16:07:38.668Z,22.60
2017-07-24T16:10:07.152Z,22.50
2017-07-24T16:12:35.431Z,22.50
2017-07-24T16:15:03.719Z,22.60
2017-07-24T16:17:32.045Z,22.50
2017-07-24T16:20:01.118Z,22.30
2017-07-24T16:22:29.416Z,22.30
2017-07-24T16:24:57.729Z,22.50
2017-07-24T16:27:26.811Z,22.40
2017-07-24T16:29:55.123Z,22.40
2017-07-24T16:32:24.202Z,22.30
2017-07-24T16:34:52.520Z,22.30
2017-07-24T16:37:21.558Z,22.40
2017-07-24T16:39:49.882Z,22.40
2017-07-24T16:42:18.283Z,22.50
2017-07-24T16:44:46.563Z,22.40
2017-07-24T16:47:15.058Z,22.30
2017-07-24T16:49:43.344Z,22.30
2017-07-24T16:52:11.618Z,22.30
2017-07-24T16:54:39.936Z,22.30
2017-07-24T16:57:08.214Z,22.20
2017-07-24T16:59:36.527Z,22.20
2017-07-24T17:02:05.614Z,22.10
2017-07-24T17:04:34.011Z,22.00
2017-07-24T17:07:02.394Z,22.00
2017-07-24T17:09:30.708Z,22.00
2017-07-24T17:11:59.009Z,22.00
2017-07-24T17:14:28.050Z,21.90
2017-07-24T17:16:56.388Z,21.90
2017-07-24T17:19:24.771Z,21.90
2017-07-24T17:21:53.090Z,21.90
2017-07-24T17:24:21.390Z,22.00
2017-07-24T17:26:49.697Z,22.00
2017-07-24T17:29:18.019Z,21.90
2017-07-24T17:31:46.315Z,21.90
2017-07-24T17:34:14.708Z,21.90
2017-07-24T17:36:43.089Z,21.80
2017-07-24T17:39:11.403Z,21.80
2017-07-24T17:41:40.473Z,21.80
2017-07-24T17:44:08.887Z,21.80
2017-07-24T17:46:37.163Z,21.80
2017-07-24T17:49:05.470Z,21.80
2017-07-24T17:51:33.789Z,21.70
2017-07-24T17:54:02.839Z,21.70
2017-07-24T17:56:31.161Z,21.70
2017-07-24T17:58:59.552Z,21.70
2017-07-24T18:01:27.869Z,21.80
2017-07-24T18:03:57.043Z,21.70
2017-07-24T18:06:25.360Z,21.70
2017-07-24T18:08:54.438Z,21.40
2017-07-24T18:11:22.727Z,21.40
2017-07-24T18:13:51.107Z,21.40
2017-07-24T18:16:19.396Z,21.30
2017-07-24T18:18:47.706Z,21.20
2017-07-24T18:21:16.068Z,21.10
2017-07-24T18:23:44.346Z,21.10
2017-07-24T18:26:12.663Z,21.10
2017-07-24T18:28:41.046Z,21.10
2017-07-24T18:31:09.454Z,21.00
2017-07-24T18:33:37.743Z,21.10
2017-07-24T18:36:06.065Z,21.10
2017-07-24T18:38:34.419Z,21.10
2017-07-24T18:41:02.803Z,21.10
2017-07-24T18:43:31.184Z,21.10
2017-07-24T18:45:59.586Z,21.00
2017-07-24T18:48:27.907Z,20.90
2017-07-24T18:50:56.995Z,20.90
2017-07-24T18:53:25.367Z,20.90
2017-07-24T18:55:53.643Z,20.90
2017-07-24T18:58:22.067Z,20.90
2017-07-24T19:00:50.456Z,20.90
2017-07-24T19:03:18.747Z,20.90
2017-07-24T19:05:47.226Z,20.80
2017-07-24T19:08:15.506Z,20.80
2017-07-24T19:10:43.914Z,20.70
2017-07-24T19:13:12.214Z,20.60
2017-07-24T19:15:40.597Z,20.50
2017-07-24T19:18:08.871Z,20.50
2017-07-24T19:20:37.150Z,20.50
2017-07-24T19:23:05.453Z,20.40
2017-07-24T19:25:33.743Z,20.30
2017-07-24T19:28:02.062Z,20.30
2017-07-24T19:30:31.103Z,20.20
2017-07-24T19:32:59.430Z,20.20
2017-07-24T19:35:27.734Z,20.10
2017-07-24T19:37:56.110Z,20.20
2017-07-24T19:40:24.391Z,20.10
2017-07-24T19:42:52.720Z,20.00
2017-07-24T19:45:21.898Z,20.10
2017-07-24T19:47:50.187Z,20.10
2017-07-24T19:50:18.496Z,20.10
2017-07-24T19:52:46.805Z,20.00
2017-07-24T19:55:15.153Z,20.00
2017-07-24T19:57:43.430Z,20.00
2017-07-24T20:00:11.742Z,19.90
2017-07-24T20:02:40.822Z,19.90
2017-07-24T20:05:09.148Z,19.90
2017-07-24T20:07:37.466Z,19.90
2017-07-24T20:10:05.789Z,19.80
2017-07-24T20:12:34.303Z,19.70
2017-07-24T20:15:02.585Z,19.70
2017-07-24T20:17:30.886Z,19.80
2017-07-24T20:19:59.172Z,19.80
2017-07-24T20:22:27.581Z,19.70
2017-07-24T20:24:55.855Z,19.70
2017-07-24T20:27:24.172Z,19.50
2017-07-24T20:29:53.263Z,19.20
2017-07-24T20:32:21.571Z,19.20
2017-07-24T20:34:50.664Z,19.30
2017-07-24T20:37:19.038Z,19.20
2017-07-24T20:39:47.315Z,19.20
2017-07-24T20:42:15.813Z,19.20
2017-07-24T20:44:44.187Z,19.20
2017-07-24T20:47:12.603Z,19.20
2017-07-24T20:49:40.891Z,19.10
2017-07-24T20:52:09.168Z,19.10
2017-07-24T20:54:37.494Z,19.10
2017-07-24T20:57:06.597Z,19.20
2017-07-24T20:59:34.889Z,19.10
2017-07-24T21:02:03.387Z,19.10
2017-07-24T21:04:32.445Z,19.00
2017-07-24T21:07:00.767Z,19.00
2017-07-24T21:09:29.079Z,18.80
2017-07-24T21:11:58.168Z,18.80
2017-07-24T21:14:26.474Z,18.70
2017-07-24T21:16:55.856Z,18.90
2017-07-24T21:19:24.168Z,18.80
2017-07-24T21:21:52.488Z,18.80
2017-07-24T21:24:20.831Z,18.70
2017-07-24T21:26:49.119Z,18.80
2017-07-24T21:29:17.520Z,18.80
2017-07-24T21:31:45.827Z,18.80
2017-07-24T21:34:15.524Z,18.80
2017-07-24T21:36:43.826Z,18.80
2017-07-24T21:39:12.199Z,18.80
2017-07-24T21:41:40.752Z,18.80
2017-07-24T21:44:09.096Z,18.70
2017-07-24T21:46:37.384Z,18.70
2017-07-24T21:49:05.708Z,18.70
2017-07-24T21:51:33.996Z,18.50
2017-07-24T21:54:02.347Z,18.50
2017-07-24T21:56:30.659Z,18.50
2017-07-24T21:58:59.706Z,18.60
2017-07-24T22:01:28.040Z,18.60
2017-07-24T22:03:56.336Z,18.60
2017-07-24T22:06:24.711Z,18.60
2017-07-24T22:08:52.994Z,18.40
2017-07-24T22:11:21.275Z,18.30
2017-07-24T22:13:49.593Z,18.30
2017-07-24T22:16:17.866Z,18.30
2017-07-24T22:18:46.188Z,18.30
2017-07-24T22:21:15.267Z,18.30
2017-07-24T22:23:43.663Z,18.30
2017-07-24T22:26:11.988Z,18.20
2017-07-24T22:28:41.060Z,18.30
2017-07-24T22:31:09.391Z,18.30
2017-07-24T22:33:37.684Z,18.30
2017-07-24T22:36:05.971Z,18.20
2017-07-24T22:38:34.287Z,18.30
2017-07-24T22:41:02.617Z,18.20
2017-07-24T22:43:30.999Z,18.20
2017-07-24T22:45:59.297Z,18.10
2017-07-24T22:48:27.615Z,18.10
2017-07-24T22:50:55.959Z,18.20
2017-07-24T22:53:24.298Z,18.20
2017-07-24T22:55:52.642Z,18.10
2017-07-24T22:58:20.930Z,18.20
2017-07-24T23:00:49.323Z,18.20
2017-07-24T23:03:17.612Z,18.10
2017-07-24T23:05:45.903Z,18.10
2017-07-24T23:08:14.279Z,18.10
2017-07-24T23:10:42.589Z,18.10
2017-07-24T23:13:10.976Z,18.00
2017-07-24T23:15:39.304Z,18.00
2017-07-24T23:18:07.625Z,18.10
2017-07-24T23:20:35.907Z,18.00
2017-07-24T23:23:04.219Z,18.00
2017-07-24T23:25:32.628Z,18.00
2017-07-24T23:28:00.914Z,18.00
2017-07-24T23:30:29.227Z,18.00
2017-07-24T23:32:58.284Z,18.00
2017-07-24T23:35:26.587Z,18.00
2017-07-24T23:37:55.043Z,17.90
2017-07-24T23:40:23.397Z,17.90
2017-07-24T23:42:51.724Z,17.80
2017-07-24T23:45:20.068Z,17.80
2017-07-24T23:47:48.350Z,17.70
2017-07-24T23:50:16.649Z,17.70
2017-07-24T23:52:44.972Z,17.70
2017-07-24T23:55:13.315Z,17.40
2017-07-24T23:57:41.649Z,17.60
